Terminal Aerodrome Forecast
Issued by NWS Mt. Holly, NJ

Home | Current Version | Previous Version | Text Only | Print | Product List | Glossary On
Versions: 1 2 3 4 5 6 7 8 9 10 11 12 13 14 15 16 17 18 19 20 21 22 23 24
000
FTUS41 KPHI 251120
TAFPHL
TAF
KPHL 251120Z 2512/2618 06013G23KT 6SM BR VCSH OVC004
     FM251500 07015G27KT 5SM -RA OVC008
      TEMPO 2519/2522 1 1/2SM +RA
     FM252200 06013G20KT 3SM RA OVC008
     FM260200 06013KT 5SM -RA OVC006
     FM260500 03010KT 3SM BR OVC004=

USA.gov is the U.S. government's official web portal to all federal, state and local government web resources and services.